createdAt,value
2019-03-21T00:01:22.630Z,27.93
2019-03-21T00:03:48.960Z,28.03
2019-03-21T00:06:15.643Z,28.27
2019-03-21T00:08:40.076Z,28.57
2019-03-21T00:11:13.129Z,28.40
2019-03-21T00:13:37.550Z,29.30
2019-03-21T00:16:03.423Z,29.83
2019-03-21T00:18:27.824Z,30.07
2019-03-21T00:20:52.273Z,29.00
2019-03-21T00:23:16.674Z,29.50
2019-03-21T00:25:41.175Z,30.10
2019-03-21T00:28:05.729Z,31.00
2019-03-21T00:30:30.160Z,31.17
2019-03-21T00:32:56.427Z,30.57
2019-03-21T00:35:20.983Z,31.57
2019-03-21T00:37:45.551Z,32.33
2019-03-21T00:40:18.911Z,32.30
2019-03-21T00:42:43.350Z,31.87
2019-03-21T00:45:10.830Z,31.43
2019-03-21T00:47:35.288Z,32.27
2019-03-21T00:49:59.703Z,33.87
2019-03-21T00:52:24.151Z,32.80
2019-03-21T00:54:48.556Z,34.07
2019-03-21T00:57:13.004Z,33.30
2019-03-21T00:59:37.410Z,33.40
2019-03-21T01:02:01.867Z,32.37
2019-03-21T01:04:27.735Z,33.60
2019-03-21T01:06:52.174Z,33.03
2019-03-21T01:09:16.731Z,32.13
2019-03-21T01:11:41.265Z,32.23
2019-03-21T01:14:05.804Z,32.77
2019-03-21T01:16:30.250Z,31.23
2019-03-21T01:18:54.674Z,31.43
2019-03-21T01:21:19.121Z,31.97
2019-03-21T01:23:43.533Z,31.97
2019-03-21T01:26:09.799Z,32.67
2019-03-21T01:28:34.325Z,31.13
2019-03-21T01:30:58.743Z,32.47
2019-03-21T01:33:23.244Z,31.97
2019-03-21T01:35:47.658Z,31.97
2019-03-21T01:38:12.106Z,32.63
2019-03-21T02:32:46.609Z,29.97
2019-03-21T02:35:11.207Z,30.23
2019-03-21T02:37:35.616Z,30.47
2019-03-21T02:40:00.543Z,30.47
2019-03-21T02:42:25.463Z,29.50
2019-03-21T02:44:49.998Z,31.77
2019-03-21T02:47:14.620Z,30.07
2019-03-21T02:49:39.065Z,30.47
2019-03-21T02:52:03.474Z,29.47
2019-03-21T02:54:27.994Z,30.47
2019-03-21T02:56:53.257Z,29.60
2019-03-21T02:59:17.679Z,30.13
2019-03-21T03:01:42.137Z,29.27
2019-03-21T03:04:06.564Z,29.43
2019-03-21T03:06:30.985Z,30.27
2019-03-21T03:08:55.398Z,29.67
2019-03-21T03:11:22.638Z,29.90
2019-03-21T03:13:49.702Z,29.20
2019-03-21T03:16:14.112Z,30.40
2019-03-21T03:18:38.516Z,29.57
2019-03-21T03:21:02.955Z,29.50
2019-03-21T03:23:27.351Z,29.30
2019-03-21T03:25:51.884Z,30.43
2019-03-21T03:28:37.633Z,29.60
2019-03-21T03:31:02.048Z,30.17
2019-03-21T03:33:26.981Z,30.70
2019-03-21T03:35:51.495Z,31.17
2019-03-21T03:38:15.918Z,31.07
2019-03-21T03:40:55.397Z,27.97
2019-03-21T03:43:19.915Z,29.03
2019-03-21T03:45:44.961Z,28.97
2019-03-21T03:48:09.448Z,29.23
2019-03-21T03:50:33.931Z,27.90
2019-03-21T03:52:59.202Z,27.40
2019-03-21T03:55:23.713Z,29.00
2019-03-21T03:57:51.015Z,28.60
2019-03-21T04:00:22.764Z,28.40
2019-03-21T04:02:49.166Z,27.50
2019-03-21T04:05:14.596Z,28.07
2019-03-21T04:07:39.518Z,27.00
2019-03-21T04:10:05.975Z,27.63
2019-03-21T04:12:30.835Z,28.50
2019-03-21T04:14:55.234Z,28.23
2019-03-21T04:17:19.668Z,27.63
2019-03-21T04:19:44.092Z,27.30
2019-03-21T04:22:08.591Z,28.23
2019-03-21T04:24:33.071Z,27.30
2019-03-21T04:26:57.559Z,28.03
2019-03-21T04:29:21.971Z,28.03
2019-03-21T04:31:46.426Z,27.53
2019-03-21T04:34:11.212Z,28.27
2019-03-21T04:36:37.261Z,28.43
2019-03-21T04:39:01.684Z,27.67
2019-03-21T04:41:26.106Z,27.90
2019-03-21T04:43:50.530Z,27.73
2019-03-21T04:46:14.943Z,29.83
2019-03-21T04:48:39.523Z,28.73
2019-03-21T04:51:04.011Z,28.40
2019-03-21T04:53:28.441Z,28.93
2019-03-21T04:55:53.157Z,28.60
2019-03-21T04:58:17.594Z,30.40
2019-03-21T05:00:43.744Z,29.73
2019-03-21T05:03:13.949Z,29.37
2019-03-21T05:05:38.421Z,30.20
2019-03-21T05:08:03.012Z,28.67
2019-03-21T05:10:27.424Z,31.33
2019-03-21T05:12:52.224Z,30.97
2019-03-21T05:15:19.930Z,30.90
2019-03-21T05:17:44.792Z,30.13
2019-03-21T05:20:15.114Z,30.10
2019-03-21T05:22:39.612Z,30.47
2019-03-21T05:25:06.006Z,30.23
2019-03-21T05:27:30.440Z,30.50
2019-03-21T05:29:54.852Z,29.67
2019-03-21T05:32:19.290Z,31.80
2019-03-21T05:34:43.767Z,31.27
2019-03-21T05:37:08.183Z,30.57
2019-03-21T05:39:32.704Z,31.20
2019-03-21T05:41:57.126Z,30.53
2019-03-21T05:44:24.598Z,29.80
2019-03-21T05:46:50.528Z,30.70
2019-03-21T05:49:14.969Z,29.23
2019-03-21T05:51:39.377Z,29.17
2019-03-21T05:54:03.870Z,28.40
2019-03-21T05:56:28.278Z,29.63
2019-03-21T05:58:52.713Z,29.13
2019-03-21T06:01:17.142Z,29.03
2019-03-21T06:03:46.853Z,28.97
2019-03-21T06:06:16.869Z,28.37
2019-03-21T06:08:41.955Z,28.30
2019-03-21T06:11:06.490Z,29.07
2019-03-21T06:13:30.935Z,28.73
2019-03-21T06:15:56.916Z,28.90
2019-03-21T06:18:26.983Z,28.77
2019-03-21T06:21:00.438Z,28.30
2019-03-21T06:23:44.423Z,27.13
2019-03-21T06:26:23.497Z,27.57
2019-03-21T06:28:47.938Z,26.77
2019-03-21T06:31:12.372Z,26.63
2019-03-21T06:33:36.798Z,26.40
2019-03-21T06:36:01.224Z,25.83
2019-03-21T06:38:25.634Z,25.70
2019-03-21T06:40:50.078Z,27.47
2019-03-21T06:43:14.579Z,26.00
2019-03-21T06:45:47.495Z,26.67
2019-03-21T06:48:05.292Z,26.77
2019-03-21T06:50:29.728Z,27.63
2019-03-21T06:52:54.159Z,27.53
2019-03-21T06:55:18.594Z,26.87
2019-03-21T06:57:43.002Z,27.80
2019-03-21T07:00:09.589Z,26.73
2019-03-21T07:02:33.991Z,25.73
2019-03-21T07:04:58.425Z,25.83
2019-03-21T07:07:22.837Z,26.57
2019-03-21T07:09:47.320Z,26.40
2019-03-21T07:12:11.815Z,26.93
2019-03-21T07:14:36.320Z,25.73
2019-03-21T07:17:00.974Z,26.73
2019-03-21T07:19:25.677Z,26.40
2019-03-21T07:21:50.098Z,25.30
2019-03-21T07:24:14.515Z,26.17
2019-03-21T07:26:38.958Z,25.03
2019-03-21T07:29:03.370Z,25.63
2019-03-21T07:31:29.452Z,24.13
2019-03-21T07:33:58.380Z,24.80
2019-03-21T07:36:26.337Z,24.37
2019-03-21T07:38:54.981Z,23.47
2019-03-21T07:41:22.262Z,24.67
2019-03-21T07:43:49.550Z,23.30
2019-03-21T07:46:14.894Z,23.83
2019-03-21T07:48:39.437Z,21.67
2019-03-21T07:51:03.866Z,22.47
2019-03-21T07:53:28.453Z,22.63
2019-03-21T07:55:53.036Z,22.90
2019-03-21T07:58:17.645Z,22.47
2019-03-21T08:00:42.082Z,20.27
2019-03-21T08:03:06.504Z,21.27
2019-03-21T08:05:39.753Z,21.47
2019-03-21T08:07:57.047Z,21.80
2019-03-21T08:10:21.518Z,21.40
2019-03-21T08:12:45.974Z,20.37
2019-03-21T08:15:17.657Z,20.97
2019-03-21T08:17:42.230Z,21.43
2019-03-21T08:20:09.684Z,20.43
2019-03-21T08:22:34.134Z,21.80
2019-03-21T08:24:58.546Z,21.00
2019-03-21T08:27:23.076Z,21.10
2019-03-21T08:29:46.482Z,20.90
2019-03-21T08:32:10.679Z,21.10
2019-03-21T08:34:35.102Z,20.83
2019-03-21T08:36:59.529Z,20.17
2019-03-21T08:39:24.052Z,21.50
2019-03-21T08:41:48.450Z,20.13
2019-03-21T08:44:12.872Z,19.77
2019-03-21T08:46:37.311Z,20.27
2019-03-21T08:49:01.886Z,20.57
2019-03-21T08:51:26.335Z,20.30
2019-03-21T08:53:50.764Z,18.47
2019-03-21T08:56:15.169Z,20.53
2019-03-21T08:58:39.606Z,19.20
2019-03-21T09:01:04.153Z,20.00
2019-03-21T09:03:28.597Z,19.93
2019-03-21T09:05:53.002Z,19.87
2019-03-21T09:08:17.446Z,20.23
2019-03-21T09:10:41.876Z,19.40
2019-03-21T09:13:06.476Z,18.50
2019-03-21T09:15:30.896Z,19.50
2019-03-21T09:17:55.592Z,18.17
2019-03-21T09:20:20.037Z,18.27
2019-03-21T09:22:44.479Z,19.27
2019-03-21T09:25:09.255Z,18.77
2019-03-21T09:27:33.708Z,19.47
2019-03-21T09:29:58.119Z,19.60
2019-03-21T09:32:22.874Z,19.43
2019-03-21T09:34:47.335Z,18.43
2019-03-21T09:37:11.827Z,18.10
2019-03-21T09:39:36.254Z,19.13
2019-03-21T09:42:00.750Z,19.73
2019-03-21T09:44:26.827Z,19.40
2019-03-21T09:46:51.753Z,19.40
2019-03-21T09:49:16.201Z,19.37
2019-03-21T09:51:40.619Z,19.63
2019-03-21T09:54:09.788Z,19.63
2019-03-21T09:56:31.313Z,18.37
2019-03-21T09:58:55.810Z,18.03
2019-03-21T10:01:20.361Z,18.70
2019-03-21T10:03:44.858Z,16.00
2019-03-21T10:06:09.252Z,17.47
2019-03-21T10:08:33.693Z,18.17
2019-03-21T10:10:58.129Z,17.07
2019-03-21T10:13:22.559Z,17.33
2019-03-21T10:15:48.483Z,16.37
2019-03-21T10:18:12.994Z,15.03
2019-03-21T10:20:37.460Z,15.80
2019-03-21T10:23:01.950Z,15.17
2019-03-21T10:25:26.968Z,14.17
2019-03-21T10:27:51.737Z,15.80
2019-03-21T10:30:31.013Z,16.50
2019-03-21T10:32:55.436Z,15.20
2019-03-21T10:35:22.656Z,15.23
2019-03-21T10:37:47.075Z,15.50
2019-03-21T10:40:13.064Z,14.90
2019-03-21T10:42:37.506Z,15.83
2019-03-21T10:45:01.933Z,16.00
2019-03-21T10:47:26.435Z,15.80
2019-03-21T10:49:50.852Z,14.63
2019-03-21T10:52:15.275Z,16.23
2019-03-21T10:54:39.720Z,16.23
2019-03-21T10:57:04.131Z,15.27
2019-03-21T10:59:28.566Z,15.53
2019-03-21T11:01:52.993Z,17.40
2019-03-21T11:04:17.433Z,16.03
2019-03-21T11:06:41.844Z,16.80
2019-03-21T11:09:07.969Z,16.63
2019-03-21T11:11:32.464Z,17.33
2019-03-21T11:13:56.913Z,15.80
2019-03-21T11:16:21.471Z,16.70
2019-03-21T11:18:45.970Z,15.73
2019-03-21T11:21:10.502Z,14.63
2019-03-21T11:23:34.997Z,14.43
2019-03-21T11:25:59.436Z,15.07
2019-03-21T11:28:23.857Z,15.27
2019-03-21T11:30:48.315Z,14.97
2019-03-21T11:33:12.812Z,15.83
2019-03-21T11:35:37.337Z,16.80
2019-03-21T11:38:02.209Z,15.70
2019-03-21T11:40:26.725Z,15.23
2019-03-21T11:42:51.128Z,16.67
2019-03-21T11:45:15.664Z,16.53
2019-03-21T11:47:42.062Z,15.47
2019-03-21T11:50:06.837Z,15.00
2019-03-21T11:52:31.243Z,15.50
2019-03-21T11:54:55.673Z,16.47
2019-03-21T11:57:20.175Z,16.60
2019-03-21T11:59:51.677Z,16.23
2019-03-21T12:02:10.770Z,17.50
2019-03-21T12:04:35.235Z,16.87
2019-03-21T12:06:59.785Z,17.10
2019-03-21T12:09:24.284Z,17.93
2019-03-21T12:11:48.809Z,17.23
2019-03-21T12:14:13.229Z,16.93
2019-03-21T12:16:37.752Z,18.37
2019-03-21T12:19:02.189Z,17.33
2019-03-21T12:21:26.647Z,17.70
2019-03-21T12:23:51.092Z,16.87
2019-03-21T12:26:15.549Z,17.37
2019-03-21T12:28:40.067Z,18.13
2019-03-21T12:31:04.682Z,17.23
2019-03-21T12:33:29.126Z,17.90
2019-03-21T12:35:53.574Z,17.07
2019-03-21T12:38:18.023Z,16.67
2019-03-21T12:40:42.629Z,18.30
2019-03-21T12:43:07.220Z,18.23
2019-03-21T12:45:31.742Z,16.90
2019-03-21T12:47:56.229Z,17.80
2019-03-21T12:50:20.651Z,17.33
2019-03-21T12:52:45.106Z,19.33
2019-03-21T12:55:09.772Z,19.13
2019-03-21T12:57:34.222Z,20.27
2019-03-21T12:59:58.661Z,20.23
2019-03-21T13:02:31.925Z,18.43
2019-03-21T13:04:49.643Z,17.40
2019-03-21T13:07:14.790Z,17.37
2019-03-21T13:09:39.642Z,18.40
2019-03-21T13:12:04.209Z,17.77
2019-03-21T13:14:28.621Z,18.43
2019-03-21T13:16:53.060Z,17.60
2019-03-21T13:19:17.468Z,17.77
2019-03-21T13:21:41.905Z,17.17
2019-03-21T13:24:06.352Z,17.60
2019-03-21T13:26:30.785Z,17.60
2019-03-21T13:28:55.219Z,18.63
2019-03-21T13:31:19.641Z,17.73
2019-03-21T13:33:44.094Z,17.40
2019-03-21T13:36:08.692Z,20.10
2019-03-21T13:38:33.142Z,19.23
2019-03-21T13:40:57.568Z,17.83
2019-03-21T13:43:22.001Z,19.70
2019-03-21T13:45:46.422Z,17.30
2019-03-21T13:48:10.983Z,19.30
2019-03-21T13:50:35.552Z,19.33
2019-03-21T13:53:04.815Z,19.87
2019-03-21T13:55:26.247Z,19.90
2019-03-21T13:57:50.706Z,19.83
2019-03-21T14:00:17.918Z,20.27
2019-03-21T14:02:42.451Z,21.07
2019-03-21T14:05:08.317Z,19.73
2019-03-21T14:07:32.861Z,20.13
2019-03-21T14:09:57.232Z,17.60
2019-03-21T14:12:21.663Z,18.93
2019-03-21T14:14:46.102Z,19.33
2019-03-21T14:17:21.312Z,19.60
2019-03-21T14:19:36.644Z,20.80
2019-03-21T14:22:01.075Z,20.37
2019-03-21T14:24:25.580Z,19.87
2019-03-21T14:26:49.987Z,19.93
2019-03-21T14:29:14.426Z,17.93
2019-03-21T14:31:38.847Z,18.87
2019-03-21T14:34:03.293Z,19.70
2019-03-21T14:36:27.707Z,20.07
2019-03-21T14:38:52.141Z,20.43
2019-03-21T14:41:16.640Z,21.37
2019-03-21T14:43:41.075Z,20.47
2019-03-21T14:46:05.572Z,19.63
2019-03-21T14:48:30.123Z,19.50
2019-03-21T14:50:54.561Z,19.07
2019-03-21T14:53:28.420Z,21.20
2019-03-21T14:55:47.652Z,22.07
2019-03-21T14:58:11.299Z,20.57
2019-03-21T15:00:35.813Z,21.30
2019-03-21T15:03:00.270Z,22.03
2019-03-21T15:05:24.723Z,21.13
2019-03-21T15:07:49.341Z,21.03
2019-03-21T15:10:16.391Z,21.37
2019-03-21T15:12:40.983Z,20.10
2019-03-21T15:15:07.957Z,19.90
2019-03-21T15:17:32.385Z,20.00
2019-03-21T15:19:56.892Z,19.93
2019-03-21T15:22:21.369Z,20.13
2019-03-21T15:24:46.003Z,19.33
2019-03-21T15:27:10.489Z,18.00
2019-03-21T15:29:35.535Z,17.73
2019-03-21T15:32:00.345Z,19.17
2019-03-21T15:34:24.786Z,18.27
2019-03-21T15:36:49.191Z,20.03
2019-03-21T15:39:13.790Z,18.80
2019-03-21T15:41:38.702Z,18.67
2019-03-21T15:44:03.308Z,18.73
2019-03-21T15:46:27.736Z,18.37
2019-03-21T15:48:52.223Z,18.73
2019-03-21T15:51:16.676Z,18.47
2019-03-21T15:53:53.249Z,17.77
2019-03-21T15:56:07.268Z,18.17
2019-03-21T15:58:31.684Z,17.07
2019-03-21T16:00:56.122Z,17.87
2019-03-21T16:03:20.988Z,17.73
2019-03-21T16:05:45.426Z,16.70
2019-03-21T16:08:10.093Z,16.73
2019-03-21T16:10:34.649Z,17.27
2019-03-21T16:12:59.071Z,18.60
2019-03-21T16:15:23.528Z,18.03
2019-03-21T16:17:47.935Z,19.03
2019-03-21T16:20:12.517Z,16.40
2019-03-21T16:22:37.071Z,17.37
2019-03-21T16:25:01.490Z,16.43
2019-03-21T16:27:25.958Z,17.30
2019-03-21T16:29:50.342Z,17.63
2019-03-21T16:32:14.775Z,17.57
2019-03-21T16:34:39.180Z,18.23
2019-03-21T16:37:03.689Z,17.43
2019-03-21T16:39:28.113Z,17.47
2019-03-21T16:41:52.613Z,18.37
2019-03-21T16:44:17.041Z,17.57
2019-03-21T16:46:41.470Z,18.00
2019-03-21T16:49:05.959Z,18.60
2019-03-21T16:51:30.397Z,18.37
2019-03-21T16:53:54.811Z,19.87
2019-03-21T16:56:19.312Z,19.20
2019-03-21T16:58:43.723Z,20.03
2019-03-21T17:01:08.166Z,18.33
2019-03-21T17:03:32.591Z,20.73
2019-03-21T17:05:57.036Z,20.70
2019-03-21T17:08:21.463Z,19.53
2019-03-21T17:10:45.963Z,20.00
2019-03-21T17:13:10.378Z,18.90
2019-03-21T17:15:34.800Z,20.10
2019-03-21T17:17:59.281Z,20.30
2019-03-21T17:20:23.698Z,21.20
2019-03-21T17:22:48.199Z,21.80
2019-03-21T17:25:13.187Z,23.43
2019-03-21T17:27:37.701Z,24.80
2019-03-21T17:30:02.203Z,21.90
2019-03-21T17:32:26.707Z,22.50
2019-03-21T17:34:51.159Z,23.40
2019-03-21T17:37:15.614Z,22.00
2019-03-21T17:39:40.025Z,21.07
2019-03-21T17:42:04.610Z,22.10
2019-03-21T17:44:29.035Z,20.50
2019-03-21T17:46:53.534Z,21.33
2019-03-21T17:49:17.957Z,20.63
2019-03-21T17:51:42.368Z,21.80
2019-03-21T17:54:06.816Z,21.67
2019-03-21T17:56:31.302Z,21.57
2019-03-21T17:58:55.854Z,22.37
2019-03-21T18:01:20.499Z,22.37
2019-03-21T18:03:45.026Z,21.53
2019-03-21T18:06:09.500Z,22.83
2019-03-21T18:08:34.016Z,22.50
2019-03-21T18:10:58.419Z,24.03
2019-03-21T18:13:22.844Z,24.77
2019-03-21T18:15:47.340Z,24.23
2019-03-21T18:18:11.780Z,23.93
2019-03-21T18:20:36.219Z,24.10
2019-03-21T18:23:00.793Z,23.97
2019-03-21T18:25:25.345Z,22.77
2019-03-21T18:27:49.843Z,23.93
2019-03-21T18:30:15.048Z,23.27
2019-03-21T18:32:39.457Z,25.80
2019-03-21T18:35:05.744Z,24.57
2019-03-21T18:37:30.158Z,25.23
2019-03-21T18:39:55.489Z,26.20
2019-03-21T18:42:19.918Z,25.50
2019-03-21T18:44:44.390Z,25.17
2019-03-21T18:47:08.906Z,24.83
2019-03-21T18:49:33.422Z,26.10
2019-03-21T18:51:57.915Z,25.37
2019-03-21T18:54:22.393Z,26.23
2019-03-21T18:56:46.821Z,25.87
2019-03-21T18:59:11.279Z,26.10
2019-03-21T19:01:35.757Z,26.30
2019-03-21T19:04:00.201Z,25.53
2019-03-21T19:06:24.609Z,26.73
2019-03-21T19:08:49.058Z,26.10
2019-03-21T19:11:13.473Z,26.77
2019-03-21T19:13:37.942Z,26.23
2019-03-21T19:16:02.339Z,25.57
2019-03-21T19:18:26.804Z,27.97
2019-03-21T19:20:51.325Z,27.37
2019-03-21T19:23:15.737Z,28.73
2019-03-21T19:25:40.186Z,28.50
2019-03-21T19:28:04.750Z,27.10
2019-03-21T19:30:29.276Z,27.00
2019-03-21T19:32:53.699Z,27.43
2019-03-21T19:35:18.220Z,28.30
2019-03-21T19:37:42.635Z,29.33
2019-03-21T19:40:09.859Z,29.63
2019-03-21T19:42:34.342Z,29.80
2019-03-21T19:44:58.848Z,31.30
2019-03-21T19:47:29.862Z,31.10
2019-03-21T19:49:49.429Z,30.60
2019-03-21T19:52:14.150Z,30.83
2019-03-21T19:54:38.656Z,29.07
2019-03-21T19:57:03.081Z,28.00
2019-03-21T19:59:27.495Z,30.93
2019-03-21T20:01:52.017Z,31.07
2019-03-21T20:04:16.425Z,30.87
2019-03-21T20:06:40.871Z,30.40
2019-03-21T20:09:07.433Z,30.00
2019-03-21T20:11:31.960Z,28.60
2019-03-21T20:13:56.448Z,29.77
2019-03-21T20:16:21.041Z,30.53
2019-03-21T20:18:45.484Z,29.13
2019-03-21T20:21:10.014Z,30.37
2019-03-21T20:23:34.443Z,30.03
2019-03-21T20:25:59.668Z,30.83
2019-03-21T20:28:24.105Z,29.40
2019-03-21T20:30:48.547Z,29.60
2019-03-21T20:33:12.984Z,28.63
2019-03-21T20:35:37.438Z,29.43
2019-03-21T20:38:01.929Z,29.87
2019-03-21T20:40:26.353Z,29.57
2019-03-21T20:42:50.830Z,28.50
2019-03-21T20:45:16.680Z,29.03
2019-03-21T20:47:41.198Z,28.87
2019-03-21T20:50:06.571Z,28.80
2019-03-21T20:52:30.991Z,29.73
2019-03-21T20:54:55.408Z,29.17
2019-03-21T20:57:19.839Z,28.87
2019-03-21T20:59:44.250Z,29.20
2019-03-21T21:02:08.750Z,27.77
2019-03-21T21:04:33.227Z,29.50
2019-03-21T21:06:57.658Z,28.13
2019-03-21T21:09:22.072Z,29.50
2019-03-21T21:11:46.490Z,28.80
2019-03-21T21:14:10.889Z,27.97
2019-03-21T21:16:35.322Z,27.57
2019-03-21T21:18:59.723Z,28.37
2019-03-21T21:21:24.184Z,26.43
2019-03-21T21:23:48.613Z,28.13
2019-03-21T21:26:13.103Z,28.33
2019-03-21T21:28:37.560Z,29.20
2019-03-21T21:31:02.005Z,30.07
2019-03-21T21:33:26.484Z,30.20
2019-03-21T21:35:50.898Z,29.43
2019-03-21T21:38:15.411Z,29.73
2019-03-21T21:40:39.822Z,27.73
2019-03-21T21:43:04.405Z,27.80
2019-03-21T21:45:28.828Z,27.20
2019-03-21T21:47:53.337Z,28.17
2019-03-21T21:50:18.557Z,27.53
2019-03-21T21:52:43.039Z,27.60
2019-03-21T21:55:08.808Z,27.77
2019-03-21T21:57:33.262Z,27.17
2019-03-21T21:59:57.689Z,24.37
2019-03-21T22:02:22.218Z,26.17
2019-03-21T22:04:46.642Z,23.13
2019-03-21T22:07:11.069Z,24.80
2019-03-21T22:09:35.509Z,27.27
2019-03-21T22:11:59.936Z,27.70
2019-03-21T22:14:24.388Z,29.60
2019-03-21T22:16:48.806Z,28.00
2019-03-21T22:19:13.239Z,29.33
2019-03-21T22:21:37.686Z,31.13
2019-03-21T22:24:02.119Z,31.53
2019-03-21T22:26:30.066Z,31.43
2019-03-21T22:28:54.681Z,32.10
2019-03-21T22:31:19.099Z,31.70
2019-03-21T22:33:43.560Z,29.30
2019-03-21T22:36:08.039Z,29.63
2019-03-21T22:38:32.557Z,30.50
2019-03-21T22:40:56.969Z,29.23
2019-03-21T22:43:21.387Z,27.93
2019-03-21T22:45:45.834Z,29.23
2019-03-21T22:48:10.336Z,28.63
2019-03-21T22:50:34.775Z,28.80
2019-03-21T22:52:59.260Z,28.50
2019-03-21T22:55:23.709Z,28.43
2019-03-21T22:57:48.300Z,27.43
2019-03-21T23:00:18.187Z,27.60
2019-03-21T23:02:42.589Z,28.53
2019-03-21T23:05:07.895Z,28.27
2019-03-21T23:07:32.308Z,29.40
2019-03-21T23:09:56.764Z,30.93
2019-03-21T23:12:21.298Z,27.53
2019-03-21T23:14:45.735Z,27.23
2019-03-21T23:17:10.155Z,25.20
2019-03-21T23:19:34.583Z,26.27
2019-03-21T23:21:59.097Z,26.80
2019-03-21T23:24:23.611Z,27.00
2019-03-21T23:26:52.925Z,25.80
2019-03-21T23:29:14.246Z,25.13
2019-03-21T23:31:38.654Z,25.30
2019-03-21T23:34:03.098Z,24.83
2019-03-21T23:36:27.579Z,23.67
2019-03-21T23:38:52.026Z,24.43
2019-03-21T23:41:16.510Z,23.70
2019-03-21T23:43:40.927Z,24.87
2019-03-21T23:46:05.354Z,24.40
2019-03-21T23:48:29.768Z,24.53
2019-03-21T23:50:54.276Z,25.60
2019-03-21T23:53:18.705Z,24.63
2019-03-21T23:55:43.209Z,26.10
2019-03-21T23:58:07.623Z,24.77
